createdAt,value
2022-11-25T00:01:07.340Z,0.70
2022-11-25T00:03:36.292Z,1.30
2022-11-25T11:43:30.773Z,1.60
2022-11-25T11:46:13.588Z,1.70
2022-11-25T11:48:50.046Z,1.00
2022-11-25T11:51:28.313Z,1.35
2022-11-25T11:54:06.154Z,1.50
2022-11-25T11:56:39.667Z,1.27
2022-11-25T11:59:30.409Z,1.20
2022-11-25T12:02:14.079Z,1.42
2022-11-25T12:04:45.648Z,1.58
2022-11-25T12:07:22.816Z,1.02
2022-11-25T12:09:56.382Z,1.00
2022-11-25T12:12:30.663Z,0.88
2022-11-25T12:15:07.315Z,0.90
2022-11-25T12:17:42.506Z,1.10
2022-11-25T12:20:18.789Z,1.73
2022-11-25T12:22:54.107Z,2.33
2022-11-25T12:25:24.966Z,1.60
2022-11-25T12:27:58.875Z,1.20
2022-11-25T12:30:35.330Z,1.70
2022-11-25T12:33:11.557Z,1.20
2022-11-25T12:35:50.080Z,0.68
2022-11-25T12:38:38.407Z,0.80
2022-11-25T12:41:17.327Z,1.10
2022-11-25T12:43:51.138Z,0.98
2022-11-25T12:46:29.763Z,0.95
2022-11-25T12:48:59.931Z,0.80
2022-11-25T12:51:47.447Z,0.60
2022-11-25T12:54:36.295Z,0.73
2022-11-25T12:57:25.181Z,0.60
2022-11-25T13:00:39.241Z,0.77
2022-11-25T13:03:26.803Z,0.73
2022-11-25T13:06:39.688Z,0.60
2022-11-25T13:09:22.602Z,0.70
2022-11-25T13:12:06.065Z,0.90
2022-11-25T13:14:55.762Z,0.57
2022-11-25T13:17:25.306Z,0.50
2022-11-25T13:20:48.659Z,0.50
2022-11-25T13:23:27.829Z,0.40
2022-11-25T13:26:36.203Z,0.70
2022-11-25T13:29:26.459Z,0.70
2022-11-25T13:31:59.733Z,0.60
2022-11-25T13:34:29.710Z,0.47
2022-11-25T13:37:00.260Z,0.82
2022-11-25T13:39:33.099Z,0.40
2022-11-25T13:42:03.614Z,0.70
2022-11-25T13:44:35.178Z,0.55
2022-11-25T13:47:33.855Z,0.80
2022-11-25T13:50:05.992Z,1.42
2022-11-25T13:52:41.477Z,2.78
2022-11-25T13:55:25.295Z,2.30
2022-11-25T13:58:19.302Z,1.80
2022-11-25T14:01:02.498Z,2.78
2022-11-25T14:03:55.904Z,2.53
2022-11-25T14:06:43.930Z,3.28
2022-11-25T14:09:35.045Z,3.10
2022-11-25T14:12:22.015Z,2.75
2022-11-25T14:15:04.187Z,4.00
2022-11-25T14:17:58.162Z,3.28
2022-11-25T14:20:44.244Z,3.72
2022-11-25T14:23:42.828Z,4.80
2022-11-25T14:26:34.137Z,3.92
2022-11-25T14:29:07.406Z,4.25
2022-11-25T14:31:41.220Z,3.97
2022-11-25T14:34:16.777Z,4.57
2022-11-25T14:36:50.382Z,3.42
2022-11-25T14:39:25.075Z,4.68
2022-11-25T14:42:01.378Z,4.43
2022-11-25T14:44:35.754Z,4.10
2022-11-25T14:47:06.183Z,4.22
2022-11-25T14:50:00.046Z,4.78
2022-11-25T14:52:36.018Z,4.38
2022-11-25T14:55:07.039Z,3.97
2022-11-25T14:57:39.153Z,4.47
2022-11-25T15:00:09.352Z,4.57
2022-11-25T15:02:41.298Z,3.75
2022-11-25T15:05:19.638Z,3.80
2022-11-25T15:08:00.820Z,4.03
2022-11-25T15:10:40.275Z,3.80
2022-11-25T15:13:20.667Z,3.63
2022-11-25T15:15:48.635Z,3.47
2022-11-25T15:18:21.240Z,3.50
2022-11-25T15:20:51.147Z,3.45
2022-11-25T15:23:24.246Z,4.10
2022-11-25T15:25:53.044Z,3.70
2022-11-25T15:28:22.351Z,3.20
2022-11-25T15:30:58.319Z,3.60
2022-11-25T15:33:28.940Z,2.80
2022-11-25T15:35:57.395Z,3.28
2022-11-25T15:38:41.020Z,2.67
2022-11-25T15:41:19.068Z,3.22
2022-11-25T15:43:50.827Z,2.67
2022-11-25T15:46:19.446Z,2.88
2022-11-25T15:48:49.487Z,3.03
2022-11-25T15:51:34.379Z,2.33
2022-11-25T15:54:06.698Z,2.67
2022-11-25T15:56:38.526Z,2.10
2022-11-25T15:59:39.452Z,1.90
2022-11-25T16:02:32.937Z,2.63
2022-11-25T16:05:24.291Z,2.55
2022-11-25T16:08:30.737Z,2.03
2022-11-25T16:11:00.851Z,2.28
2022-11-25T16:13:34.499Z,1.80
2022-11-25T16:16:15.149Z,1.88
2022-11-25T16:18:48.811Z,1.75
2022-11-25T16:21:20.772Z,2.05
2022-11-25T16:23:51.942Z,1.67
2022-11-25T16:26:25.264Z,1.55
2022-11-25T16:28:55.732Z,1.50
2022-11-25T16:31:26.036Z,1.83
2022-11-25T16:33:55.285Z,1.40
2022-11-25T16:36:23.190Z,1.50
2022-11-25T16:38:54.254Z,1.95
2022-11-25T16:41:24.349Z,1.65
2022-11-25T16:43:52.380Z,1.52
2022-11-25T16:46:21.445Z,2.08
2022-11-25T16:48:52.298Z,1.48
2022-11-25T16:51:21.720Z,1.38
2022-11-25T16:53:49.901Z,1.70
2022-11-25T16:56:22.208Z,1.50
2022-11-25T16:58:50.267Z,1.48
2022-11-25T17:01:20.643Z,1.50
2022-11-25T17:03:49.904Z,1.13
2022-11-25T17:06:22.150Z,1.20
2022-11-25T17:08:51.421Z,1.00
2022-11-25T17:11:23.791Z,1.23
2022-11-25T17:13:53.718Z,1.38
2022-11-25T17:16:24.082Z,1.33
2022-11-25T17:18:54.671Z,1.40
2022-11-25T17:21:26.707Z,1.10
2022-11-25T17:23:55.847Z,0.98
2022-11-25T17:26:34.032Z,0.95
2022-11-25T17:29:04.867Z,0.70
2022-11-25T17:31:34.625Z,0.98
2022-11-25T17:34:03.996Z,1.08
2022-11-25T17:36:31.884Z,1.25
2022-11-25T17:38:59.773Z,0.90
2022-11-25T17:41:29.384Z,0.80
2022-11-25T17:43:57.365Z,0.68
2022-11-25T17:46:29.373Z,0.90
2022-11-25T17:48:57.376Z,1.08
2022-11-25T17:51:26.593Z,0.80
2022-11-25T17:53:54.458Z,0.80
2022-11-25T17:56:26.797Z,0.80
2022-11-25T17:58:55.105Z,0.80
2022-11-25T18:01:23.030Z,0.68
2022-11-25T18:03:52.946Z,0.60
2022-11-25T18:06:21.119Z,0.90
2022-11-25T18:08:50.554Z,0.60
2022-11-25T18:11:22.856Z,0.90
2022-11-25T18:13:51.549Z,0.77
2022-11-25T18:16:20.857Z,0.57
2022-11-25T18:18:48.836Z,0.82
2022-11-25T18:21:16.736Z,0.57
2022-11-25T18:23:44.611Z,0.55
2022-11-25T18:26:14.131Z,0.50
2022-11-25T18:28:42.176Z,0.55
2022-11-25T18:31:12.792Z,0.50
2022-11-25T18:33:40.699Z,0.80
2022-11-25T18:36:13.603Z,0.50
2022-11-25T18:38:41.767Z,0.63
2022-11-25T18:41:20.298Z,0.68
2022-11-25T18:43:48.462Z,0.60
2022-11-25T18:46:16.639Z,0.68
2022-11-25T18:48:44.687Z,0.50
2022-11-25T18:51:14.285Z,0.60
2022-11-25T18:53:42.255Z,0.80
2022-11-25T18:56:17.784Z,0.65
2022-11-25T18:58:51.715Z,0.50
2022-11-25T19:01:22.585Z,0.88
2022-11-25T19:03:51.127Z,0.75
2022-11-25T19:06:19.089Z,0.77
2022-11-25T19:08:47.041Z,0.60
2022-11-25T19:11:18.825Z,0.50
2022-11-25T19:13:50.798Z,1.30
2022-11-25T19:16:22.490Z,1.52
2022-11-25T19:18:50.513Z,2.53
2022-11-25T19:21:20.141Z,4.30
2022-11-25T19:23:48.713Z,3.85
2022-11-25T19:26:20.785Z,5.05
2022-11-25T19:28:52.706Z,4.88
2022-11-25T19:31:21.036Z,6.03
2022-11-25T19:33:51.901Z,6.93
2022-11-25T19:36:24.227Z,6.80
2022-11-25T19:38:52.633Z,7.30
2022-11-25T19:41:20.780Z,7.95
2022-11-25T19:43:50.173Z,8.73
2022-11-25T19:46:30.036Z,8.95
2022-11-25T19:49:06.614Z,9.07
2022-11-25T19:51:35.722Z,9.43
2022-11-25T19:54:03.616Z,9.55
2022-11-25T19:56:31.594Z,10.02
2022-11-25T19:59:00.877Z,10.75
2022-11-25T20:01:32.895Z,10.82
2022-11-25T20:04:02.378Z,12.30
2022-11-25T20:06:31.260Z,12.30
2022-11-25T20:09:05.454Z,12.02
2022-11-25T20:11:36.676Z,14.27
2022-11-25T20:14:06.487Z,14.70
2022-11-25T20:16:38.001Z,14.02
2022-11-25T20:19:06.988Z,15.82
2022-11-25T20:21:39.648Z,16.17
2022-11-25T20:24:13.907Z,15.35
2022-11-25T20:26:45.917Z,15.93
2022-11-25T20:29:17.718Z,16.10
2022-11-25T20:31:45.890Z,17.45
2022-11-25T20:34:13.985Z,20.77
2022-11-25T20:36:44.118Z,17.65
2022-11-25T20:39:18.334Z,16.60
2022-11-25T20:41:50.049Z,17.88
2022-11-25T20:44:19.940Z,18.98
2022-11-25T20:46:48.076Z,19.38
2022-11-25T20:49:22.736Z,20.42
2022-11-25T20:51:51.033Z,18.85
2022-11-25T20:54:19.099Z,19.42
2022-11-25T20:56:47.023Z,20.20
2022-11-25T20:59:22.675Z,20.08
2022-11-25T21:01:51.098Z,20.60
2022-11-25T21:04:19.274Z,22.20
2022-11-25T21:06:47.643Z,22.90
2022-11-25T21:09:19.512Z,21.42
2022-11-25T21:11:48.010Z,21.08
2022-11-25T21:14:17.876Z,22.55
2022-11-25T21:16:47.871Z,22.40
2022-11-25T21:19:15.921Z,24.60
2022-11-25T21:21:46.706Z,24.80
2022-11-25T21:24:23.134Z,25.75
2022-11-25T21:26:51.446Z,25.40
2022-11-25T21:29:19.934Z,26.13
2022-11-25T21:31:49.307Z,28.38
2022-11-25T21:34:17.262Z,33.63
2022-11-25T21:36:47.639Z,29.80
2022-11-25T21:39:29.901Z,32.80
2022-11-25T21:42:00.580Z,33.38
2022-11-25T21:44:32.434Z,33.13
2022-11-25T21:47:02.773Z,32.33
2022-11-25T21:49:30.661Z,33.63
2022-11-25T21:51:58.581Z,33.53
2022-11-25T21:54:27.214Z,37.08
2022-11-25T21:56:55.087Z,37.15
2022-11-25T21:59:22.994Z,37.65
2022-11-25T22:01:51.006Z,33.83
2022-11-25T22:04:21.432Z,36.83
2022-11-25T22:06:50.964Z,38.05
2022-11-25T22:09:19.136Z,37.92
2022-11-25T22:11:48.730Z,35.28
2022-11-25T22:14:27.609Z,36.80
2022-11-25T22:16:56.644Z,35.38
2022-11-25T22:19:28.133Z,34.88
2022-11-25T22:21:56.433Z,34.35
2022-11-25T22:24:24.750Z,35.38
2022-11-25T22:26:57.888Z,35.90
2022-11-25T22:29:33.755Z,35.53
2022-11-25T22:32:02.138Z,35.80
2022-11-25T22:34:32.036Z,38.95
2022-11-25T22:36:59.923Z,36.17
2022-11-25T22:39:28.255Z,38.47
2022-11-25T22:41:59.604Z,36.63
2022-11-25T22:44:33.392Z,36.88
2022-11-25T22:47:01.447Z,38.03
2022-11-25T22:49:35.953Z,38.05
2022-11-25T22:52:04.262Z,37.63
2022-11-25T22:54:33.279Z,39.10
2022-11-25T22:57:01.171Z,40.15
2022-11-25T22:59:29.030Z,38.35
2022-11-25T23:01:57.192Z,39.70
2022-11-25T23:04:25.127Z,41.38
2022-11-25T23:06:56.387Z,37.35
2022-11-25T23:09:24.330Z,35.85
2022-11-25T23:11:52.292Z,36.88
2022-11-25T23:14:20.205Z,38.25
2022-11-25T23:16:48.160Z,38.28
2022-11-25T23:19:17.769Z,39.70
2022-11-25T23:21:46.444Z,37.70
2022-11-25T23:24:17.800Z,40.60
2022-11-25T23:26:45.935Z,38.05
2022-11-25T23:29:13.845Z,39.00
2022-11-25T23:31:41.963Z,37.63
2022-11-25T23:34:13.431Z,37.40
2022-11-25T23:36:45.579Z,40.17
2022-11-25T23:39:20.316Z,37.58
2022-11-25T23:41:48.760Z,38.95
2022-11-25T23:44:24.865Z,41.92
2022-11-25T23:46:53.885Z,45.88
2022-11-25T23:49:24.931Z,44.40
2022-11-25T23:51:53.406Z,47.10
2022-11-25T23:54:23.427Z,48.88
2022-11-25T23:56:51.424Z,47.22
2022-11-25T23:59:19.384Z,48.97
